Stolt Perseverance — ZCGE5 — position and weather

sailwx.info

Track history (hours):
 
Tides and Currents Weather Stations Pressure Air Temp Water Temp Dewpoint Dewpoint Depression Visibility Wind Speed Wind Dir Waves Ship Positions

Stolt Perseverance

Last reported at 2018-Apr-16 09:01 UTC. Time now 2018-Apr-22 18:19 UTC.
Position N 26°03' W 079°31'.

Length 176 m; draft 9.3 m.

Type: Ship (hazmat cat B). MMSI: 319605000.

Date/timePositionNaut miles runAvg speedWind from/ knotsBaromVisibWave heightAir tempDewpointWater temp
2018-Apr-16 09:01N 26°03' W 079°31'012.5
2018-Apr-16 09:00N 26°03' W 079°31'612.7
2018-Apr-16 08:30N 26°09' W 079°30'612.4
2018-Apr-16 08:00N 26°16' W 079°29'33810.3
2018-Apr-14 23:13N 31°50' W 080°27'311.7
2018-Apr-14 22:59N 31°51' W 080°30'5 9.9
2018-Apr-14 22:30N 31°53' W 080°35'510.0
2018-Apr-14 22:00N 31°56' W 080°39'5 9.4
2018-Apr-14 21:30N 31°58' W 080°44'612.2
2018-Apr-14 21:00N 32°02' W 080°50'5 9.7
2018-Apr-14 20:30N 32°03' W 080°56'5 9.6
2018-Apr-14 20:00N 32°06' W 080°60'4 7.9
2018-Apr-14 19:30N 32°05' W 081°04'3 4.8
2018-Apr-14 18:59N 32°06' W 081°07'0 0.0
2018-Apr-14 18:29N 32°06' W 081°07'0 0.0
2018-Apr-14 17:59N 32°06' W 081°07'0 0.0
2018-Apr-14 17:29N 32°06' W 081°07'0 0.0
2018-Apr-14 16:59N 32°06' W 081°07'0 0.0
2018-Apr-14 16:29N 32°06' W 081°07'0 0.0
2018-Apr-14 15:59N 32°06' W 081°07'0 0.0
2018-Apr-14 15:23N 32°06' W 081°07'0 0.0
2018-Apr-14 14:53N 32°06' W 081°07'0 0.0
2018-Apr-14 14:29N 32°06' W 081°07'0 0.0
2018-Apr-14 13:59N 32°06' W 081°07'0 0.0
2018-Apr-14 13:28N 32°06' W 081°07'0 0.0
2018-Apr-14 12:59N 32°06' W 081°07'0 0.0
2018-Apr-14 12:29N 32°06' W 081°07'0 0.0
2018-Apr-14 11:59N 32°06' W 081°07'0 0.0
2018-Apr-14 11:17N 32°06' W 081°07'0 0.0
2018-Apr-14 10:58N 32°06' W 081°07'0 0.0
2018-Apr-14 10:29N 32°06' W 081°07'0 0.0
2018-Apr-14 09:59N 32°06' W 081°07'0 0.0
2018-Apr-14 09:22N 32°06' W 081°07'0 0.0
2018-Apr-14 08:59N 32°06' W 081°07'0 0.0
2018-Apr-14 08:22N 32°06' W 081°07'0 0.0
2018-Apr-14 07:59N 32°06' W 081°07'0 0.0
2018-Apr-14 07:29N 32°06' W 081°07'0 0.0
2018-Apr-14 06:58N 32°06' W 081°07'0 0.0
2018-Apr-14 06:29N 32°06' W 081°07'0 0.0
2018-Apr-14 05:58N 32°06' W 081°07'0 0.0
2018-Apr-14 05:22N 32°06' W 081°07'0 0.0
2018-Apr-14 04:59N 32°06' W 081°07'0 0.0
2018-Apr-14 04:29N 32°06' W 081°07'0 0.0
2018-Apr-14 03:53N 32°06' W 081°07'0 0.0
2018-Apr-14 03:29N 32°06' W 081°07'0 0.0
2018-Apr-14 02:59N 32°06' W 081°07'0 0.0
2018-Apr-14 02:28N 32°06' W 081°07'0 0.0
2018-Apr-14 01:59N 32°06' W 081°07'0 0.0
2018-Apr-14 01:22N 32°06' W 081°07'0 0.0
2018-Apr-14 00:59N 32°06' W 081°07'0 1.0
2018-Apr-14 00:30N 32°06' W 081°07'3 5.5
2018-Apr-14 00:00N 32°05' W 081°05'3 6.4
2018-Apr-13 23:30N 32°06' W 081°01'510.5
2018-Apr-13 23:00N 32°03' W 080°56'611.9
2018-Apr-13 22:30N 32°02' W 080°49'713.0
2018-Apr-13 22:00N 31°58' W 080°43'2 4.0
2018-Apr-13 21:24N 31°59' W 080°40'0 0.1
2018-Apr-13 21:00N 31°59' W 080°40'0 0.0
2018-Apr-13 20:23N 31°59' W 080°40'0 0.0
2018-Apr-13 20:00N 31°59' W 080°40'0 0.0
2018-Apr-13 19:24N 31°59' W 080°40'0 0.0
2018-Apr-13 18:54N 31°59' W 080°40'0 0.0
2018-Apr-13 18:30N 31°59' W 080°40'0 0.0
2018-Apr-13 16:11N 31°59' W 080°40'0 0.1
2018-Apr-13 15:59N 31°59' W 080°40'0 0.1
2018-Apr-13 15:29N 31°59' W 080°40'0 0.0
2018-Apr-13 14:59N 31°59' W 080°40'0 0.0
2018-Apr-13 14:24N 31°59' W 080°40'0 0.0
2018-Apr-13 14:00N 31°59' W 080°40'0 0.0
2018-Apr-13 13:30N 31°59' W 080°40'0 0.0
2018-Apr-13 07:29N 31°59' W 080°40'0 0.0
2018-Apr-13 06:11N 31°59' W 080°40'0 0.0
2018-Apr-13 05:59N 31°59' W 080°40'0 0.0
2018-Apr-13 05:29N 31°59' W 080°40'0 0.0
2018-Apr-13 04:47N 31°59' W 080°40'0 0.0
2018-Apr-13 04:29N 31°59' W 080°40'0 0.1
2018-Apr-13 03:41N 31°59' W 080°40'0 0.1
2018-Apr-13 02:41N 31°59' W 080°40'0 0.0
2018-Apr-13 02:23N 31°59' W 080°40'0 0.0
2018-Apr-13 02:00N 31°59' W 080°40'0 0.1
2018-Apr-13 01:30N 31°59' W 080°40'0 0.2
2018-Apr-13 00:59N 31°59' W 080°40'0 0.1
2018-Apr-13 00:29N 31°59' W 080°40'0 0.0
2018-Apr-12 23:48N 31°59' W 080°40'0 0.0
2018-Apr-12 23:29N 31°59' W 080°40'0 0.0
2018-Apr-12 22:59N 31°59' W 080°40'0 0.0
2018-Apr-12 22:29N 31°59' W 080°40'0 0.0
2018-Apr-12 22:00N 31°59' W 080°40'0 0.0
2018-Apr-12 21:29N 31°59' W 080°40'0 0.0
2018-Apr-12 20:11N 31°59' W 080°40'0 0.0
2018-Apr-12 19:59N 31°59' W 080°40'0 0.0
2018-Apr-12 19:29N 31°59' W 080°40'0 0.0
2018-Apr-12 18:59N 31°59' W 080°40'0 0.0
2018-Apr-12 18:29N 31°59' W 080°40'0 0.0
2018-Apr-12 17:59N 31°59' W 080°40'0 0.0
2018-Apr-12 17:23N 31°59' W 080°40'0 0.0
2018-Apr-12 15:41N 31°59' W 080°40'0 0.1
2018-Apr-12 15:23N 31°59' W 080°40'0 0.1
2018-Apr-12 14:59N 31°59' W 080°40'0 0.1
2018-Apr-12 14:29N 31°59' W 080°40'0 0.0
2018-Apr-12 13:59N 31°59' W 080°40'0 0.0
2018-Apr-12 13:29N 31°59' W 080°40'0 0.0
2018-Apr-12 12:59N 31°59' W 080°40'0 0.0
2018-Apr-12 12:29N 31°59' W 080°40'0 0.0
2018-Apr-12 11:59N 31°59' W 080°40'0 0.1
2018-Apr-12 11:29N 31°59' W 080°40'0 0.0
2018-Apr-12 10:59N 31°59' W 080°40'0 0.0
2018-Apr-12 10:29N 31°59' W 080°40'0 0.0
2018-Apr-12 09:41N 31°59' W 080°40'0 0.0
2018-Apr-12 09:23N 31°59' W 080°40'0 0.0
2018-Apr-12 08:53N 31°59' W 080°40'0 0.0
2018-Apr-12 08:29N 31°59' W 080°40'0 0.0
2018-Apr-12 07:59N 31°59' W 080°40'0 0.0
2018-Apr-12 07:29N 31°59' W 080°40'0 0.0
2018-Apr-12 06:59N 31°59' W 080°40'0 0.0
2018-Apr-12 06:29N 31°59' W 080°40'0 0.0
2018-Apr-12 05:59N 31°59' W 080°40'0 0.0
2018-Apr-12 05:29N 31°59' W 080°40'0 0.0
2018-Apr-12 04:53N 31°59' W 080°40'0 0.0
2018-Apr-12 04:23N 31°59' W 080°40'0 0.0
2018-Apr-12 02:35N 31°59' W 080°40'0 0.1
2018-Apr-12 02:29N 31°59' W 080°40'0 0.0
2018-Apr-12 01:11N 31°59' W 080°40'0 0.0
2018-Apr-12 00:59N 31°59' W 080°40'0 0.0
2018-Apr-11 23:59N 31°59' W 080°40'0 0.0
2018-Apr-11 23:23N 31°59' W 080°40'0 0.0
2018-Apr-11 22:59N 31°59' W 080°40'0 0.0
2018-Apr-11 22:29N 31°59' W 080°40'0 0.0
2018-Apr-11 21:59N 31°59' W 080°40'0 0.0
2018-Apr-11 21:29N 31°59' W 080°40'0 0.0
2018-Apr-11 20:59N 31°59' W 080°40'0 0.0
2018-Apr-11 20:29N 31°59' W 080°40'0 0.0
2018-Apr-11 19:59N 31°59' W 080°40'0 0.0
2018-Apr-11 19:29N 31°59' W 080°40'0 0.0
2018-Apr-11 18:53N 31°59' W 080°40'0 0.0
2018-Apr-11 18:29N 31°59' W 080°40'0 0.0
2018-Apr-11 17:53N 31°59' W 080°40'0 0.0
2018-Apr-11 15:23N 31°59' W 080°40'0 0.0
2018-Apr-11 14:59N 31°59' W 080°40'0 0.0
2018-Apr-11 14:05N 31°59' W 080°40'0 0.0
2018-Apr-11 13:59N 31°59' W 080°40'0 0.0
2018-Apr-11 13:23N 31°59' W 080°40'0 0.0
2018-Apr-11 12:53N 31°59' W 080°40'0 0.0
2018-Apr-11 12:23N 31°59' W 080°40'0 0.0
2018-Apr-11 11:47N 31°59' W 080°40'0 0.0
2018-Apr-11 11:29N 31°59' W 080°40'0 0.0
2018-Apr-11 10:53N 31°59' W 080°40'0 0.0
2018-Apr-11 10:29N 31°59' W 080°40'0 0.0
2018-Apr-11 09:05N 31°59' W 080°40'0 0.1
2018-Apr-11 08:59N 31°59' W 080°40'0 0.0
2018-Apr-11 03:23N 31°59' W 080°40'0 0.0
2018-Apr-11 02:47N 31°59' W 080°40'0 0.0
2018-Apr-11 02:29N 31°59' W 080°40'0 0.0
2018-Apr-11 01:53N 31°59' W 080°40'0 0.0
2018-Apr-11 01:29N 31°59' W 080°40'0 0.0
2018-Apr-11 00:53N 31°59' W 080°40'0 0.0
2018-Apr-11 00:29N 31°59' W 080°40'0 0.0
2018-Apr-10 23:59N 31°59' W 080°40'0 0.0
2018-Apr-10 23:29N 31°59' W 080°40'0 0.0
2018-Apr-10 22:59N 31°59' W 080°40'0 0.0
2018-Apr-10 22:29N 31°59' W 080°40'0 0.0
2018-Apr-10 21:41N 31°59' W 080°40'0 0.0
2018-Apr-10 21:23N 31°59' W 080°40'0 0.0
2018-Apr-10 20:59N 31°59' W 080°40'0 0.0
2018-Apr-10 20:23N 31°59' W 080°40'0 0.0
2018-Apr-10 19:53N 31°59' W 080°40'0 0.0
2018-Apr-10 19:29N 31°59' W 080°40'0 0.0
2018-Apr-10 18:53N 31°59' W 080°40'0 0.0
2018-Apr-10 18:17N 31°59' W 080°40'0 0.0
2018-Apr-10 17:59N 31°59' W 080°40'0 0.0
2018-Apr-10 17:29N 31°59' W 080°40'0 0.0
2018-Apr-10 16:59N 31°59' W 080°40'0 0.0
2018-Apr-10 16:23N 31°59' W 080°40'0 0.0
2018-Apr-10 15:59N 31°59' W 080°40'0 0.0
2018-Apr-10 15:29N 31°59' W 080°40'0 0.0
2018-Apr-10 14:53N 31°59' W 080°40'0 0.0
2018-Apr-10 14:23N 31°59' W 080°40'0 0.0
2018-Apr-10 13:59N 31°59' W 080°40'0 0.0
2018-Apr-10 13:23N 31°59' W 080°40'0 0.0
2018-Apr-10 11:47N 31°59' W 080°40'0 0.0
2018-Apr-10 11:17N 31°59' W 080°40'0 0.0
2018-Apr-10 09:53N 31°59' W 080°40'0 0.1
2018-Apr-10 09:29N 31°59' W 080°40'0 0.0
2018-Apr-10 08:35N 31°59' W 080°40'0 0.1
2018-Apr-10 08:29N 31°59' W 080°40'0 0.0
2018-Apr-10 07:53N 31°59' W 080°40'0 0.1
2018-Apr-10 07:29N 31°59' W 080°40'0 0.0
2018-Apr-10 03:17N 31°59' W 080°40'0 0.0
2018-Apr-10 02:53N 31°59' W 080°40'0 0.0
2018-Apr-10 02:29N 31°59' W 080°40'0 0.0
2018-Apr-10 01:53N 31°59' W 080°40'0 0.0
2018-Apr-10 01:29N 31°59' W 080°40'0 0.0
2018-Apr-10 00:53N 31°59' W 080°40'0 0.0
2018-Apr-10 00:23N 31°59' W 080°40'0 0.0
2018-Apr-09 23:47N 31°59' W 080°40'0 0.0
2018-Apr-09 23:29N 31°59' W 080°40'0 0.0
2018-Apr-09 22:59N 31°59' W 080°40'0 0.0
2018-Apr-09 22:29N 31°59' W 080°40'0 0.0
2018-Apr-09 21:59N 31°59' W 080°40'0 0.0
2018-Apr-09 21:29N 31°59' W 080°40'0 0.0
2018-Apr-09 20:59N 31°59' W 080°40'0 0.0
2018-Apr-09 20:05N 31°59' W 080°40'0 0.1
2018-Apr-09 19:59N 31°59' W 080°40'0 0.0
2018-Apr-09 19:29N 31°59' W 080°40'0 0.0
2018-Apr-09 18:59N 31°59' W 080°40'0 0.0
2018-Apr-09 18:23N 31°59' W 080°40'0 0.0
2018-Apr-09 17:59N 31°59' W 080°40'0 0.0
2018-Apr-09 17:23N 31°59' W 080°40'0 0.0
2018-Apr-09 16:53N 31°59' W 080°40'0 0.0
2018-Apr-09 16:29N 31°59' W 080°40'0 0.0
2018-Apr-09 15:53N 31°59' W 080°40'0 0.2
2018-Apr-09 15:30N 31°59' W 080°40'2 5.1
2018-Apr-09 15:00N 31°58' W 080°42'611.1
2018-Apr-09 14:30N 32°01' W 080°48'611.8
2018-Apr-09 14:00N 32°02' W 080°55'611.6
2018-Apr-09 13:30N 32°06' W 080°60'4 7.8
2018-Apr-09 13:00N 32°05' W 081°04'3 6.1
2018-Apr-09 12:30N 32°06' W 081°07'1 1.3
2018-Apr-09 11:55N 32°07' W 081°08'0 0.0
2018-Apr-09 11:19N 32°07' W 081°08'0 0.0
2018-Apr-09 10:55N 32°07' W 081°08'0 0.0
2018-Apr-09 10:25N 32°07' W 081°08'0 0.0
2018-Apr-09 09:55N 32°07' W 081°08'0 0.0
2018-Apr-09 09:25N 32°07' W 081°08'0 0.0
2018-Apr-09 08:55N 32°07' W 081°08'0 0.0
2018-Apr-09 08:25N 32°07' W 081°08'0 0.0
2018-Apr-09 07:55N 32°07' W 081°08'0 0.0
2018-Apr-09 07:25N 32°07' W 081°08'0 0.0
2018-Apr-09 06:55N 32°07' W 081°08'0 0.0
2018-Apr-09 06:19N 32°07' W 081°08'0 0.0
2018-Apr-09 05:55N 32°07' W 081°08'0 0.0
2018-Apr-09 05:25N 32°07' W 081°08'0 0.0
2018-Apr-09 04:55N 32°07' W 081°08'0 0.0
2018-Apr-09 04:25N 32°07' W 081°08'0 0.0
2018-Apr-09 03:55N 32°07' W 081°08'0 0.0
2018-Apr-09 03:25N 32°07' W 081°08'0 0.0
2018-Apr-09 02:55N 32°07' W 081°08'0 0.0
2018-Apr-09 02:25N 32°07' W 081°08'0 0.0
2018-Apr-09 01:55N 32°07' W 081°08'0 0.0
2018-Apr-09 01:25N 32°07' W 081°08'0 0.0
2018-Apr-09 00:49N 32°07' W 081°08'0 0.0
2018-Apr-09 00:25N 32°07' W 081°08'0 0.0
2018-Apr-08 23:55N 32°07' W 081°08'0 0.0
2018-Apr-08 23:25N 32°07' W 081°08'0 0.0
2018-Apr-08 22:55N 32°07' W 081°08'0 0.0
2018-Apr-08 22:25N 32°07' W 081°08'0 0.0
2018-Apr-08 21:55N 32°07' W 081°08'0 0.0
2018-Apr-08 21:31N 32°07' W 081°08'0 0.0
2018-Apr-08 21:00N 32°07' W 081°08'0 0.7
2018-Apr-08 20:30N 32°07' W 081°08'2 3.3
2018-Apr-08 20:01N 32°06' W 081°06'2 4.6
2018-Apr-08 19:31N 32°05' W 081°04'3 5.8
2018-Apr-08 19:01N 32°06' W 081°01'5 9.3
2018-Apr-08 18:29N 32°03' W 080°56'510.1
2018-Apr-08 18:00N 32°02' W 080°50'611.4
2018-Apr-08 17:30N 31°59' W 080°45'510.9
2018-Apr-08 17:00N 31°57' W 080°39'4 8.0
2018-Apr-08 16:30N 31°58' W 080°34'188 6.3
2018-Apr-07 10:24N 34°12' W 077°57'1 1.7
2018-Apr-07 09:53N 34°12' W 077°57'  
Track history (hours):
 
Tides and Currents Weather Stations Pressure Air Temp Water Temp Dewpoint Dewpoint Depression Visibility Wind Speed Wind Dir Waves Ship Positions

Stolt Perseverance

Last reported at 2018-Apr-16 09:01 UTC. Time now 2018-Apr-22 18:19 UTC.
Position N 26°03' W 079°31'.

Length 176 m; draft 9.3 m.

Type: Ship (hazmat cat B). MMSI: 319605000.

Date/timePositionNaut miles runAvg speedWind from/ knotsBaromVisibWave heightAir tempDewpointWater temp
2018-Apr-16 09:01N 26°03' W 079°31'012.5
2018-Apr-16 09:00N 26°03' W 079°31'612.7
2018-Apr-16 08:30N 26°09' W 079°30'612.4
2018-Apr-16 08:00N 26°16' W 079°29'33810.3
2018-Apr-14 23:13N 31°50' W 080°27'311.7
2018-Apr-14 22:59N 31°51' W 080°30'5 9.9
2018-Apr-14 22:30N 31°53' W 080°35'510.0
2018-Apr-14 22:00N 31°56' W 080°39'5 9.4
2018-Apr-14 21:30N 31°58' W 080°44'612.2
2018-Apr-14 21:00N 32°02' W 080°50'5 9.7
2018-Apr-14 20:30N 32°03' W 080°56'5 9.6
2018-Apr-14 20:00N 32°06' W 080°60'4 7.9
2018-Apr-14 19:30N 32°05' W 081°04'3 4.8
2018-Apr-14 18:59N 32°06' W 081°07'0 0.0
2018-Apr-14 18:29N 32°06' W 081°07'0 0.0
2018-Apr-14 17:59N 32°06' W 081°07'0 0.0
2018-Apr-14 17:29N 32°06' W 081°07'0 0.0
2018-Apr-14 16:59N 32°06' W 081°07'0 0.0
2018-Apr-14 16:29N 32°06' W 081°07'0 0.0
2018-Apr-14 15:59N 32°06' W 081°07'0 0.0
2018-Apr-14 15:23N 32°06' W 081°07'0 0.0
2018-Apr-14 14:53N 32°06' W 081°07'0 0.0
2018-Apr-14 14:29N 32°06' W 081°07'0 0.0
2018-Apr-14 13:59N 32°06' W 081°07'0 0.0
2018-Apr-14 13:28N 32°06' W 081°07'0 0.0
2018-Apr-14 12:59N 32°06' W 081°07'0 0.0
2018-Apr-14 12:29N 32°06' W 081°07'0 0.0
2018-Apr-14 11:59N 32°06' W 081°07'0 0.0
2018-Apr-14 11:17N 32°06' W 081°07'0 0.0
2018-Apr-14 10:58N 32°06' W 081°07'0 0.0
2018-Apr-14 10:29N 32°06' W 081°07'0 0.0
2018-Apr-14 09:59N 32°06' W 081°07'0 0.0
2018-Apr-14 09:22N 32°06' W 081°07'0 0.0
2018-Apr-14 08:59N 32°06' W 081°07'0 0.0
2018-Apr-14 08:22N 32°06' W 081°07'0 0.0
2018-Apr-14 07:59N 32°06' W 081°07'0 0.0
2018-Apr-14 07:29N 32°06' W 081°07'0 0.0
2018-Apr-14 06:58N 32°06' W 081°07'0 0.0
2018-Apr-14 06:29N 32°06' W 081°07'0 0.0
2018-Apr-14 05:58N 32°06' W 081°07'0 0.0
2018-Apr-14 05:22N 32°06' W 081°07'0 0.0
2018-Apr-14 04:59N 32°06' W 081°07'0 0.0
2018-Apr-14 04:29N 32°06' W 081°07'0 0.0
2018-Apr-14 03:53N 32°06' W 081°07'0 0.0
2018-Apr-14 03:29N 32°06' W 081°07'0 0.0
2018-Apr-14 02:59N 32°06' W 081°07'0 0.0
2018-Apr-14 02:28N 32°06' W 081°07'0 0.0
2018-Apr-14 01:59N 32°06' W 081°07'0 0.0
2018-Apr-14 01:22N 32°06' W 081°07'0 0.0
2018-Apr-14 00:59N 32°06' W 081°07'0 1.0
2018-Apr-14 00:30N 32°06' W 081°07'3 5.5
2018-Apr-14 00:00N 32°05' W 081°05'3 6.4
2018-Apr-13 23:30N 32°06' W 081°01'510.5
2018-Apr-13 23:00N 32°03' W 080°56'611.9
2018-Apr-13 22:30N 32°02' W 080°49'713.0
2018-Apr-13 22:00N 31°58' W 080°43'2 4.0
2018-Apr-13 21:24N 31°59' W 080°40'0 0.1
2018-Apr-13 21:00N 31°59' W 080°40'0 0.0
2018-Apr-13 20:23N 31°59' W 080°40'0 0.0
2018-Apr-13 20:00N 31°59' W 080°40'0 0.0
2018-Apr-13 19:24N 31°59' W 080°40'0 0.0
2018-Apr-13 18:54N 31°59' W 080°40'0 0.0
2018-Apr-13 18:30N 31°59' W 080°40'0 0.0
2018-Apr-13 16:11N 31°59' W 080°40'0 0.1
2018-Apr-13 15:59N 31°59' W 080°40'0 0.1
2018-Apr-13 15:29N 31°59' W 080°40'0 0.0
2018-Apr-13 14:59N 31°59' W 080°40'0 0.0
2018-Apr-13 14:24N 31°59' W 080°40'0 0.0
2018-Apr-13 14:00N 31°59' W 080°40'0 0.0
2018-Apr-13 13:30N 31°59' W 080°40'0 0.0
2018-Apr-13 07:29N 31°59' W 080°40'0 0.0
2018-Apr-13 06:11N 31°59' W 080°40'0 0.0
2018-Apr-13 05:59N 31°59' W 080°40'0 0.0
2018-Apr-13 05:29N 31°59' W 080°40'0 0.0
2018-Apr-13 04:47N 31°59' W 080°40'0 0.0
2018-Apr-13 04:29N 31°59' W 080°40'0 0.1
2018-Apr-13 03:41N 31°59' W 080°40'0 0.1
2018-Apr-13 02:41N 31°59' W 080°40'0 0.0
2018-Apr-13 02:23N 31°59' W 080°40'0 0.0
2018-Apr-13 02:00N 31°59' W 080°40'0 0.1
2018-Apr-13 01:30N 31°59' W 080°40'0 0.2
2018-Apr-13 00:59N 31°59' W 080°40'0 0.1
2018-Apr-13 00:29N 31°59' W 080°40'0 0.0
2018-Apr-12 23:48N 31°59' W 080°40'0 0.0
2018-Apr-12 23:29N 31°59' W 080°40'0 0.0
2018-Apr-12 22:59N 31°59' W 080°40'0 0.0
2018-Apr-12 22:29N 31°59' W 080°40'0 0.0
2018-Apr-12 22:00N 31°59' W 080°40'0 0.0
2018-Apr-12 21:29N 31°59' W 080°40'0 0.0
2018-Apr-12 20:11N 31°59' W 080°40'0 0.0
2018-Apr-12 19:59N 31°59' W 080°40'0 0.0
2018-Apr-12 19:29N 31°59' W 080°40'0 0.0
2018-Apr-12 18:59N 31°59' W 080°40'0 0.0
2018-Apr-12 18:29N 31°59' W 080°40'0 0.0
2018-Apr-12 17:59N 31°59' W 080°40'0 0.0
2018-Apr-12 17:23N 31°59' W 080°40'0 0.0
2018-Apr-12 15:41N 31°59' W 080°40'0 0.1
2018-Apr-12 15:23N 31°59' W 080°40'0 0.1
2018-Apr-12 14:59N 31°59' W 080°40'0 0.1
2018-Apr-12 14:29N 31°59' W 080°40'0 0.0
2018-Apr-12 13:59N 31°59' W 080°40'0 0.0
2018-Apr-12 13:29N 31°59' W 080°40'0 0.0
2018-Apr-12 12:59N 31°59' W 080°40'0 0.0
2018-Apr-12 12:29N 31°59' W 080°40'0 0.0
2018-Apr-12 11:59N 31°59' W 080°40'0 0.1
2018-Apr-12 11:29N 31°59' W 080°40'0 0.0
2018-Apr-12 10:59N 31°59' W 080°40'0 0.0
2018-Apr-12 10:29N 31°59' W 080°40'0 0.0
2018-Apr-12 09:41N 31°59' W 080°40'0 0.0
2018-Apr-12 09:23N 31°59' W 080°40'0 0.0
2018-Apr-12 08:53N 31°59' W 080°40'0 0.0
2018-Apr-12 08:29N 31°59' W 080°40'0 0.0
2018-Apr-12 07:59N 31°59' W 080°40'0 0.0
2018-Apr-12 07:29N 31°59' W 080°40'0 0.0
2018-Apr-12 06:59N 31°59' W 080°40'0 0.0
2018-Apr-12 06:29N 31°59' W 080°40'0 0.0
2018-Apr-12 05:59N 31°59' W 080°40'0 0.0
2018-Apr-12 05:29N 31°59' W 080°40'0 0.0
2018-Apr-12 04:53N 31°59' W 080°40'0 0.0
2018-Apr-12 04:23N 31°59' W 080°40'0 0.0
2018-Apr-12 02:35N 31°59' W 080°40'0 0.1
2018-Apr-12 02:29N 31°59' W 080°40'0 0.0
2018-Apr-12 01:11N 31°59' W 080°40'0 0.0
2018-Apr-12 00:59N 31°59' W 080°40'0 0.0
2018-Apr-11 23:59N 31°59' W 080°40'0 0.0
2018-Apr-11 23:23N 31°59' W 080°40'0 0.0
2018-Apr-11 22:59N 31°59' W 080°40'0 0.0
2018-Apr-11 22:29N 31°59' W 080°40'0 0.0
2018-Apr-11 21:59N 31°59' W 080°40'0 0.0
2018-Apr-11 21:29N 31°59' W 080°40'0 0.0
2018-Apr-11 20:59N 31°59' W 080°40'0 0.0
2018-Apr-11 20:29N 31°59' W 080°40'0 0.0
2018-Apr-11 19:59N 31°59' W 080°40'0 0.0
2018-Apr-11 19:29N 31°59' W 080°40'0 0.0
2018-Apr-11 18:53N 31°59' W 080°40'0 0.0
2018-Apr-11 18:29N 31°59' W 080°40'0 0.0
2018-Apr-11 17:53N 31°59' W 080°40'0 0.0
2018-Apr-11 15:23N 31°59' W 080°40'0 0.0
2018-Apr-11 14:59N 31°59' W 080°40'0 0.0
2018-Apr-11 14:05N 31°59' W 080°40'0 0.0
2018-Apr-11 13:59N 31°59' W 080°40'0 0.0
2018-Apr-11 13:23N 31°59' W 080°40'0 0.0
2018-Apr-11 12:53N 31°59' W 080°40'0 0.0
2018-Apr-11 12:23N 31°59' W 080°40'0 0.0
2018-Apr-11 11:47N 31°59' W 080°40'0 0.0
2018-Apr-11 11:29N 31°59' W 080°40'0 0.0
2018-Apr-11 10:53N 31°59' W 080°40'0 0.0
2018-Apr-11 10:29N 31°59' W 080°40'0 0.0
2018-Apr-11 09:05N 31°59' W 080°40'0 0.1
2018-Apr-11 08:59N 31°59' W 080°40'0 0.0
2018-Apr-11 03:23N 31°59' W 080°40'0 0.0
2018-Apr-11 02:47N 31°59' W 080°40'0 0.0
2018-Apr-11 02:29N 31°59' W 080°40'0 0.0
2018-Apr-11 01:53N 31°59' W 080°40'0 0.0
2018-Apr-11 01:29N 31°59' W 080°40'0 0.0
2018-Apr-11 00:53N 31°59' W 080°40'0 0.0
2018-Apr-11 00:29N 31°59' W 080°40'0 0.0
2018-Apr-10 23:59N 31°59' W 080°40'0 0.0
2018-Apr-10 23:29N 31°59' W 080°40'0 0.0
2018-Apr-10 22:59N 31°59' W 080°40'0 0.0
2018-Apr-10 22:29N 31°59' W 080°40'0 0.0
2018-Apr-10 21:41N 31°59' W 080°40'0 0.0
2018-Apr-10 21:23N 31°59' W 080°40'0 0.0
2018-Apr-10 20:59N 31°59' W 080°40'0 0.0
2018-Apr-10 20:23N 31°59' W 080°40'0 0.0
2018-Apr-10 19:53N 31°59' W 080°40'0 0.0
2018-Apr-10 19:29N 31°59' W 080°40'0 0.0
2018-Apr-10 18:53N 31°59' W 080°40'0 0.0
2018-Apr-10 18:17N 31°59' W 080°40'0 0.0
2018-Apr-10 17:59N 31°59' W 080°40'0 0.0
2018-Apr-10 17:29N 31°59' W 080°40'0 0.0
2018-Apr-10 16:59N 31°59' W 080°40'0 0.0
2018-Apr-10 16:23N 31°59' W 080°40'0 0.0
2018-Apr-10 15:59N 31°59' W 080°40'0 0.0
2018-Apr-10 15:29N 31°59' W 080°40'0 0.0
2018-Apr-10 14:53N 31°59' W 080°40'0 0.0
2018-Apr-10 14:23N 31°59' W 080°40'0 0.0
2018-Apr-10 13:59N 31°59' W 080°40'0 0.0
2018-Apr-10 13:23N 31°59' W 080°40'0 0.0
2018-Apr-10 11:47N 31°59' W 080°40'0 0.0
2018-Apr-10 11:17N 31°59' W 080°40'0 0.0
2018-Apr-10 09:53N 31°59' W 080°40'0 0.1
2018-Apr-10 09:29N 31°59' W 080°40'0 0.0
2018-Apr-10 08:35N 31°59' W 080°40'0 0.1
2018-Apr-10 08:29N 31°59' W 080°40'0 0.0
2018-Apr-10 07:53N 31°59' W 080°40'0 0.1
2018-Apr-10 07:29N 31°59' W 080°40'0 0.0
2018-Apr-10 03:17N 31°59' W 080°40'0 0.0
2018-Apr-10 02:53N 31°59' W 080°40'0 0.0
2018-Apr-10 02:29N 31°59' W 080°40'0 0.0
2018-Apr-10 01:53N 31°59' W 080°40'0 0.0
2018-Apr-10 01:29N 31°59' W 080°40'0 0.0
2018-Apr-10 00:53N 31°59' W 080°40'0 0.0
2018-Apr-10 00:23N 31°59' W 080°40'0 0.0
2018-Apr-09 23:47N 31°59' W 080°40'0 0.0
2018-Apr-09 23:29N 31°59' W 080°40'0 0.0
2018-Apr-09 22:59N 31°59' W 080°40'0 0.0
2018-Apr-09 22:29N 31°59' W 080°40'0 0.0
2018-Apr-09 21:59N 31°59' W 080°40'0 0.0
2018-Apr-09 21:29N 31°59' W 080°40'0 0.0
2018-Apr-09 20:59N 31°59' W 080°40'0 0.0
2018-Apr-09 20:05N 31°59' W 080°40'0 0.1
2018-Apr-09 19:59N 31°59' W 080°40'0 0.0
2018-Apr-09 19:29N 31°59' W 080°40'0 0.0
2018-Apr-09 18:59N 31°59' W 080°40'0 0.0
2018-Apr-09 18:23N 31°59' W 080°40'0 0.0
2018-Apr-09 17:59N 31°59' W 080°40'0 0.0
2018-Apr-09 17:23N 31°59' W 080°40'0 0.0
2018-Apr-09 16:53N 31°59' W 080°40'0 0.0
2018-Apr-09 16:29N 31°59' W 080°40'0 0.0
2018-Apr-09 15:53N 31°59' W 080°40'0 0.2
2018-Apr-09 15:30N 31°59' W 080°40'2 5.1
2018-Apr-09 15:00N 31°58' W 080°42'611.1
2018-Apr-09 14:30N 32°01' W 080°48'611.8
2018-Apr-09 14:00N 32°02' W 080°55'611.6
2018-Apr-09 13:30N 32°06' W 080°60'4 7.8
2018-Apr-09 13:00N 32°05' W 081°04'3 6.1
2018-Apr-09 12:30N 32°06' W 081°07'1 1.3
2018-Apr-09 11:55N 32°07' W 081°08'0 0.0
2018-Apr-09 11:19N 32°07' W 081°08'0 0.0
2018-Apr-09 10:55N 32°07' W 081°08'0 0.0
2018-Apr-09 10:25N 32°07' W 081°08'0 0.0
2018-Apr-09 09:55N 32°07' W 081°08'0 0.0
2018-Apr-09 09:25N 32°07' W 081°08'0 0.0
2018-Apr-09 08:55N 32°07' W 081°08'0 0.0
2018-Apr-09 08:25N 32°07' W 081°08'0 0.0
2018-Apr-09 07:55N 32°07' W 081°08'0 0.0
2018-Apr-09 07:25N 32°07' W 081°08'0 0.0
2018-Apr-09 06:55N 32°07' W 081°08'0 0.0
2018-Apr-09 06:19N 32°07' W 081°08'0 0.0
2018-Apr-09 05:55N 32°07' W 081°08'0 0.0
2018-Apr-09 05:25N 32°07' W 081°08'0 0.0
2018-Apr-09 04:55N 32°07' W 081°08'0 0.0
2018-Apr-09 04:25N 32°07' W 081°08'0 0.0
2018-Apr-09 03:55N 32°07' W 081°08'0 0.0
2018-Apr-09 03:25N 32°07' W 081°08'0 0.0
2018-Apr-09 02:55N 32°07' W 081°08'0 0.0
2018-Apr-09 02:25N 32°07' W 081°08'0 0.0
2018-Apr-09 01:55N 32°07' W 081°08'0 0.0
2018-Apr-09 01:25N 32°07' W 081°08'0 0.0
2018-Apr-09 00:49N 32°07' W 081°08'0 0.0
2018-Apr-09 00:25N 32°07' W 081°08'0 0.0
2018-Apr-08 23:55N 32°07' W 081°08'0 0.0
2018-Apr-08 23:25N 32°07' W 081°08'0 0.0
2018-Apr-08 22:55N 32°07' W 081°08'0 0.0
2018-Apr-08 22:25N 32°07' W 081°08'0 0.0
2018-Apr-08 21:55N 32°07' W 081°08'0 0.0
2018-Apr-08 21:31N 32°07' W 081°08'0 0.0
2018-Apr-08 21:00N 32°07' W 081°08'0 0.7
2018-Apr-08 20:30N 32°07' W 081°08'2 3.3
2018-Apr-08 20:01N 32°06' W 081°06'2 4.6
2018-Apr-08 19:31N 32°05' W 081°04'3 5.8
2018-Apr-08 19:01N 32°06' W 081°01'5 9.3
2018-Apr-08 18:29N 32°03' W 080°56'510.1
2018-Apr-08 18:00N 32°02' W 080°50'611.4
2018-Apr-08 17:30N 31°59' W 080°45'510.9
2018-Apr-08 17:00N 31°57' W 080°39'4 8.0
2018-Apr-08 16:30N 31°58' W 080°34'188 6.3
2018-Apr-07 10:24N 34°12' W 077°57'1 1.7
2018-Apr-07 09:53N 34°12' W 077°57'  

Dump ship's entire track history